Language selection

Weather shortcuts

Explorer - northwestern half: Past 24 Hour Conditions

 

South Hecate Strait - 46185

11:00 PM PDT 17 May 2024Buoy position: 52.85N 130.08W
Disclaimer

This table is a summary of hourly weather conditions for the past 24 hours.
Please note that these observations might not always be representative of weather conditions over their associated marine area.

Date / Time
(PDT)
Wind(knots) Wave height(m) Wave period(s) Pressure(kPa) Air tempC) Water tempC)
17 May 2024
23:00 NE 5 gusts 8 0.70 4.5 102.0 8 10
22:00 NNE 11 gusts 13 0.70 4.1 102.0 8 10
21:00 NNW 11 gusts 12 0.70 5.4 102.0 9 10
20:00 NNW 10 gusts 13 0.80 5.7 102.1 9 10
19:00 NW 5 gusts 6 0.60 5.6 102.1 9 10
18:00 NNW 12 gusts 16 0.70 5.3 102.1 8 10
17:00 NE 5 gusts 9 0.80 6.0 102.1 8 10
16:00 E 3 gusts 5 0.90 5.7 102.2 8 10
15:00 ENE 2 gusts 3 1.00 6.0 102.2 9 10
14:00 ENE 4 gusts 6 1.00 6.1 102.2 9 10
13:00 ENE 7 gusts 8 1.20 6.4 102.2 9 10
12:00 NNE 9 gusts 11 1.30 6.7 102.2 8 10
11:00 N 12 gusts 15 1.50 6.6 102.1 8 10
10:00 N 11 gusts 13 1.50 6.9 102.1 9 10
9:00 NNE 12 gusts 15 1.70 6.7 102.1 9 10
8:00 NNE 16 gusts 19 1.70 6.9 102.1 9 10
7:00 NNE 17 gusts 19 1.70 7.1 102.1 9 10
6:00 NNE 18 gusts 21 1.80 7.1 102.0 9 10
5:00 ENE 18 gusts 22 1.80 7.3 102.0 9 10
4:00 E 18 gusts 23 1.90 6.9 102.0 9 10
3:00 E 18 gusts 22 2.00 6.9 101.9 9 10
2:00 ESE 22 gusts 25 2.20 7.1 101.9 9 10
1:00 E 22 gusts 25 2.20 6.6 101.9 9 10
0:00 ENE 23 gusts 27 2.10 6.9 101.8 10 10
16 May 2024
23:00 NE 22 gusts 27 2.10 6.4 101.8 10 10

Zoom-in to make a selection

Map of Pacific - North Coast marine weather areas Middle Nomad - 46004 South Nomad - 46036 Dixon Entrance Central - 46145 South Moresby - 46147 Nanakwa Shoal - 46181 North Hecate Strait - 46183 North Nomad - 46184 South Hecate Strait - 46185 West Sea Otter - 46204 West Dixon Entrance - 46205 East Dellwood - 46207 West Moresby - 46208 Sartine Island Cape St.James Kindakun Rocks Langara Island Masset Municipal Airport Rose Spit Sandspit Airport Bella Bella Airport Bella Coola Airport Bonilla Island Cathedral Point Cumshewa Island Grey Islet Holland Rock Lucy Islands Lightstation Prince Rupert Airport
Legend:
buoy Buoy
land station Land Station

Pacific - North Coast Area

Another Region

Date modified: